Sanford, NC

2:03 AM EDT on October 01, 2016 (GMT -0400)
Gress Weather Station | | Change Station

Elev 348 ft 35.50 °N, 79.29 °W | Updated 1 minute ago

Fog
Fog
63.2 °F
Feels Like 63.2 °F
N
0.0
Wind Variable Wind from South

Today
High -- | Low -- °F
--% Chance of Precip.
Yesterday
High -- | Low -- °F
Precip. -- in
Pressure 30.03 in
Visibility 0.5 miles
Clouds Overcast 100 ft
Dew Point 63 °F
Humidity 98%
Rainfall 0.00 in
Snow Depth Not available.
7:11 AM 6:59 PM
New Moon, 0% visible
METAR KTTA 010545Z AUTO 00000KT 1/2SM FG OVC001 18/18 A3003 RMK AO2 T01830181
Pressure 30.03 in
Visibility 0.5 miles
Clouds Overcast 100 ft
Dew Point 63 °F
Humidity 98%
Rainfall 0.00 in
Snow Depth Not available.
7:11 AM 6:59 PM
New Moon, 0% visible
METAR KTTA 010545Z AUTO 00000KT 1/2SM FG OVC001 18/18 A3003 RMK AO2 T01830181

10-Day Weather Forecast

Almanac

Astronomy

Oct. 01, 2016 Rise Set
Actual Time
Civil Twilight
Nautical Twilight
Astronomical Twilight
Moon
Length of Visible Light
Length of Day
Tomorrow will be .
, % of the Moon is Illuminated

Today's Extremes

State Highs State Lows

Community

WunderPhotos

Upload Photos

1,942,898 photos uploaded!

WunderBlog® & News

Nearby

Air Quality

  Air Quality AQ Index Pollutant
Not available.

Snow Depth

Station Depth Elevation

Earthquake Activity

City Distance Mag. Time & Date
Minimum magnitude displayed is 2.5.

Coastal Water Temperatures

Place Temperature

Stations

Nearby Weather Stations

Station Location Temp. Windchill Dew Point Humidity Wind Precip. Elev Updated Type
                   

Watches & Warnings

There are currently no watches in effect.